Terminal Aerodrome Forecast
Issued by NWS

Home | Current Version | Previous Version | Text Only | Print | Product List | Glossary On
Versions: 1 2 3 4 5 6 7 8 9 10 11 12 13 14 15 16 17 18 19 20 21 22 23 24 25 26 27 28 29 30 31 32 33 34 35 36 37 38 39 40 41 42
000
FTUS44 KOUN 212320
TAFCSM
TAF
KCSM 212320Z 2200/2224 17012KT P6SM BKN015
     FM220100 18011KT 1SM BR OVC004
     FM221100 33014KT P6SM BKN150
     FM221600 33020G30KT P6SM FEW150=

USA.gov is the U.S. government's official web portal to all federal, state and local government web resources and services.